Time;durP1;ratioP1;P1;durP2;ratioP2;P2;SDS_P1;SDS_P2;PMS_P1;PMS_P2;Temp;Humidity;BMP_temperature;BMP_pressure;BME280_temperature;BME280_humidity;BME280_pressure;Samples;Min_cycle;Max_cycle;Signal;HPM_P1;HPM_P2
2021/12/05 00:20:45;;;;;;;3.50;1.90;;;4.70;99.90;;;;;;5014235;28;20084;-59
2021/12/05 00:23:16;;;;;;;1.88;1.40;;;3.90;99.90;;;;;;5014368;28;20112;-60
2021/12/05 00:25:46;;;;;;;3.72;1.30;;;4.60;99.90;;;;;;4993980;28;20034;-61
2021/12/05 00:33:59;;;;;;;2.33;1.20;;;4.90;99.90;;;;;;5014001;28;20044;-60
2021/12/05 00:47:19;;;;;;;2.95;2.00;;;4.70;99.90;;;;;;5013914;28;20116;-58
2021/12/05 00:50:09;;;;;;;2.40;1.83;;;4.00;99.90;;;;;;5013023;28;20069;-58
2021/12/05 01:06:39;;;;;;;3.40;1.40;;;4.10;99.90;;;;;;5020175;28;20412;-61
2021/12/05 01:09:28;;;;;;;4.50;1.75;;;4.40;99.90;;;;;;5033483;28;20038;-60
2021/12/05 01:12:16;;;;;;;3.63;1.80;;;3.90;99.90;;;;;;5014934;28;20033;-59
2021/12/05 01:17:09;;;;;;;5.55;1.38;;;3.80;99.90;;;;;;5012920;28;20030;-61
2021/12/05 01:19:35;;;;;;;2.33;1.63;;;3.80;99.90;;;;;;5013302;28;20104;-61
2021/12/05 01:22:06;;;;;;;1.83;1.65;;;3.30;99.90;;;;;;5012528;28;20781;-60
2021/12/05 01:25:05;;;;;;;2.60;1.52;;;4.00;99.90;;;;;;5010621;28;20025;-62
2021/12/05 01:54:52;;;;;;;4.72;1.70;;;4.70;99.90;;;;;;5012257;28;20026;-60
2021/12/05 02:09:05;;;;;;;5.13;1.55;;;4.00;99.90;;;;;;5007186;28;20057;-61
2021/12/05 02:41:46;;;;;;;6.72;1.52;;;4.40;99.90;;;;;;5007759;28;20509;-60
2021/12/05 02:44:24;;;;;;;4.25;1.50;;;4.20;99.90;;;;;;5011709;28;20065;-60
2021/12/05 02:47:00;;;;;;;6.53;1.10;;;4.10;99.90;;;;;;5011787;28;20443;-61
2021/12/05 02:49:27;;;;;;;3.20;1.60;;;3.80;99.90;;;;;;5011076;28;20503;-61
2021/12/05 02:51:58;;;;;;;6.53;1.58;;;4.30;99.90;;;;;;5011575;28;20026;-61
2021/12/05 02:54:26;;;;;;;5.70;1.55;;;4.30;99.90;;;;;;5006975;28;20026;-60
2021/12/05 02:56:53;;;;;;;4.32;1.67;;;4.10;99.90;;;;;;5009897;28;20026;-60
2021/12/05 02:59:41;;;;;;;3.63;1.55;;;4.10;99.90;;;;;;5011469;28;20383;-60
2021/12/05 03:02:17;;;;;;;3.45;1.13;;;3.80;99.90;;;;;;5011478;28;20037;-61
2021/12/05 03:04:45;;;;;;;5.72;1.42;;;4.50;99.90;;;;;;5010601;28;20030;-61
2021/12/05 03:07:14;;;;;;;6.03;1.33;;;4.50;99.90;;;;;;5007290;28;20040;-60
2021/12/05 03:09:42;;;;;;;4.30;1.40;;;4.50;99.90;;;;;;5011636;28;20036;-60
2021/12/05 03:12:11;;;;;;;5.30;1.35;;;4.00;99.90;;;;;;5011344;28;20480;-58
2021/12/05 03:14:38;;;;;;;6.80;1.40;;;4.40;99.90;;;;;;5009791;28;20030;-60
2021/12/05 03:17:04;;;;;;;3.08;1.13;;;4.30;99.90;;;;;;5011423;28;20017;-60
2021/12/05 03:19:30;;;;;;;4.22;1.20;;;4.50;99.90;;;;;;5007269;28;20538;-60
2021/12/05 03:21:56;;;;;;;5.15;1.30;;;;;;;;;;5010733;28;20033;-60
2021/12/05 03:24:24;;;;;;;5.00;1.70;;;3.80;99.90;;;;;;5010691;28;20117;-59
2021/12/05 03:26:52;;;;;;;4.72;1.30;;;4.20;99.90;;;;;;5010401;28;20022;-60
2021/12/05 03:29:20;;;;;;;7.53;1.33;;;3.90;99.90;;;;;;5011184;28;20030;-61
2021/12/05 03:31:47;;;;;;;5.72;1.08;;;4.20;99.90;;;;;;5011104;28;20022;-59
2021/12/05 03:34:17;;;;;;;4.97;1.30;;;4.70;99.90;;;;;;5009854;28;20447;-60
2021/12/05 03:36:48;;;;;;;5.40;1.20;;;4.30;99.90;;;;;;5009650;28;20047;-59
2021/12/05 03:39:15;;;;;;;1.73;1.05;;;4.90;99.90;;;;;;5010354;28;20084;-60
2021/12/05 03:41:42;;;;;;;4.53;1.23;;;4.50;99.90;;;;;;5011109;28;20068;-59
2021/12/05 03:44:11;;;;;;;6.30;1.27;;;4.30;99.90;;;;;;5011058;28;20018;-60
2021/12/05 03:46:37;;;;;;;1.83;1.10;;;3.80;99.90;;;;;;5006650;28;20054;-60
2021/12/05 03:49:09;;;;;;;3.88;1.20;;;4.00;99.90;;;;;;5011957;28;20421;-59
2021/12/05 03:51:37;;;;;;;5.30;1.38;;;4.20;99.90;;;;;;5012429;28;20110;-60
2021/12/05 03:54:05;;;;;;;6.40;1.25;;;4.70;99.90;;;;;;4997300;28;20026;-61
2021/12/05 03:56:32;;;;;;;2.08;0.90;;;4.80;99.90;;;;;;4994672;28;20668;-59
2021/12/05 03:58:58;;;;;;;4.70;1.38;;;4.60;99.90;;;;;;5002914;28;20530;-60
2021/12/05 04:01:25;;;;;;;5.00;1.17;;;4.30;99.90;;;;;;5014780;28;20026;-61
2021/12/05 04:03:53;;;;;;;1.35;1.23;;;4.70;99.90;;;;;;5014479;28;20046;-59
2021/12/05 04:06:20;;;;;;;4.20;1.00;;;6.00;99.90;;;;;;5012909;28;20623;-61
2021/12/05 04:08:46;;;;;;;5.35;1.30;;;;;;;;;;5014504;28;20037;-62
2021/12/05 04:11:17;;;;;;;6.80;1.60;;;3.70;99.90;;;;;;5010758;28;20052;-60
2021/12/05 04:13:44;;;;;;;8.47;1.20;;;4.40;99.90;;;;;;5014422;28;20455;-61
2021/12/05 04:16:10;;;;;;;6.32;1.90;;;4.20;99.90;;;;;;5013694;28;20026;-60
2021/12/05 04:18:37;;;;;;;3.85;1.55;;;4.40;99.90;;;;;;5013137;28;20025;-60
2021/12/05 04:21:05;;;;;;;5.03;1.30;;;4.10;99.90;;;;;;5014803;28;20423;-60
2021/12/05 04:23:31;;;;;;;2.72;1.48;;;3.80;99.90;;;;;;5014147;28;20186;-60
2021/12/05 04:25:57;;;;;;;4.93;1.52;;;4.10;99.90;;;;;;5009416;28;20049;-60
2021/12/05 04:28:24;;;;;;;5.68;1.33;;;4.30;99.90;;;;;;5015357;28;20108;-57
2021/12/05 04:30:50;;;;;;;4.10;1.15;;;5.20;99.90;;;;;;5015263;28;20034;-58
2021/12/05 04:33:18;;;;;;;5.38;1.40;;;4.40;99.90;;;;;;5015437;28;20034;-56
2021/12/05 04:35:44;;;;;;;5.05;1.00;;;3.70;99.90;;;;;;5015012;28;20034;-60
2021/12/05 04:38:10;;;;;;;1.13;0.95;;;3.80;99.90;;;;;;5014898;28;20420;-56
2021/12/05 04:40:36;;;;;;;1.88;1.20;;;4.50;99.90;;;;;;5017287;28;20026;-58
2021/12/05 04:43:03;;;;;;;2.15;1.00;;;4.10;99.90;;;;;;5016438;28;20495;-60
2021/12/05 04:45:30;;;;;;;3.15;1.17;;;4.00;99.90;;;;;;5017401;28;20555;-61
2021/12/05 04:47:56;;;;;;;3.63;1.48;;;3.60;99.90;;;;;;5018658;28;20041;-60
2021/12/05 04:50:24;;;;;;;3.17;1.23;;;3.30;99.90;;;;;;5012989;28;20029;-60
2021/12/05 04:52:51;;;;;;;4.03;1.33;;;4.60;99.90;;;;;;5012001;28;20026;-59
2021/12/05 04:55:18;;;;;;;2.33;1.00;;;3.40;99.90;;;;;;5013513;28;20022;-59
2021/12/05 04:57:44;;;;;;;3.05;1.30;;;3.40;99.90;;;;;;5012839;28;20121;-60
2021/12/05 05:00:15;;;;;;;4.38;1.23;;;3.90;99.90;;;;;;5013844;28;20102;-59
2021/12/05 05:02:41;;;;;;;3.38;1.20;;;4.00;99.90;;;;;;5011827;28;20025;-59
2021/12/05 05:05:09;;;;;;;2.95;1.58;;;;;;;;;;5008550;28;20068;-59
2021/12/05 05:07:37;;;;;;;7.70;1.08;;;4.00;99.90;;;;;;5013596;28;20030;-59
2021/12/05 05:10:24;;;;;;;3.42;1.30;;;3.70;99.90;;;;;;5012682;28;20104;-58
2021/12/05 05:12:50;;;;;;;5.75;1.10;;;4.00;99.90;;;;;;5013475;28;20022;-60
2021/12/05 05:15:21;;;;;;;3.22;1.23;;;3.50;99.90;;;;;;5012893;28;20036;-61
2021/12/05 05:17:50;;;;;;;5.63;1.30;;;4.20;99.90;;;;;;5012564;28;20072;-59
2021/12/05 05:47:32;;;;;;;5.50;1.23;;;3.10;99.90;;;;;;5025880;28;20099;-69
2021/12/05 05:50:00;;;;;;;4.80;1.60;;;3.90;99.90;;;;;;5022051;28;20618;-68
2021/12/05 05:52:28;;;;;;;4.47;1.80;;;3.50;99.90;;;;;;5012591;28;20030;-68
2021/12/05 05:54:57;;;;;;;3.50;1.50;;;3.60;99.90;;;;;;5012127;28;20495;-69
2021/12/05 05:57:27;;;;;;;2.67;1.30;;;3.30;99.90;;;;;;5011775;28;20046;-68
2021/12/05 06:05:04;;;;;;;4.10;1.30;;;2.70;99.90;;;;;;4992392;28;20492;-69
2021/12/05 06:07:30;;;;;;;4.03;1.10;;;3.10;99.90;;;;;;4992828;28;20393;-68
2021/12/05 06:09:56;;;;;;;8.52;1.10;;;3.80;99.90;;;;;;5003347;28;20037;-68
2021/12/05 06:12:22;;;;;;;4.55;1.10;;;3.10;99.90;;;;;;5012392;28;20029;-69
2021/12/05 06:14:48;;;;;;;5.80;1.40;;;3.90;99.90;;;;;;5010115;28;20022;-68
2021/12/05 06:17:17;;;;;;;4.85;1.35;;;3.50;99.90;;;;;;5012074;28;20104;-68
2021/12/05 06:19:43;;;;;;;3.92;1.20;;;2.90;99.90;;;;;;5011712;28;20527;-69
2021/12/05 06:22:09;;;;;;;3.58;1.00;;;3.90;99.90;;;;;;5008017;28;20030;-69
2021/12/05 06:24:35;;;;;;;5.22;1.40;;;3.10;99.90;;;;;;5029283;28;20112;-69
2021/12/05 06:27:01;;;;;;;4.68;1.33;;;2.90;99.90;;;;;;5028315;28;20458;-69
2021/12/05 06:29:33;;;;;;;1.42;1.00;;;3.40;99.90;;;;;;5011725;28;20022;-69
2021/12/05 06:32:32;;;;;;;4.35;1.30;;;4.00;99.90;;;;;;5011676;28;20018;-69
2021/12/05 06:47:54;;;;;;;1.63;0.90;;;3.50;99.90;;;;;;4992298;28;20045;-68
2021/12/05 06:50:20;;;;;;;3.80;1.10;;;2.80;99.90;;;;;;4991236;28;20026;-69
2021/12/05 06:52:46;;;;;;;3.92;1.00;;;3.00;99.90;;;;;;5005659;28;20034;-69
2021/12/05 06:55:13;;;;;;;5.50;1.40;;;3.60;99.90;;;;;;5011035;28;20022;-69
2021/12/05 06:57:40;;;;;;;9.77;1.20;;;3.50;99.90;;;;;;5009470;28;20037;-69
2021/12/05 07:00:10;;;;;;;7.00;1.70;;;3.60;99.90;;;;;;5010337;28;20410;-69
2021/12/05 07:02:35;;;;;;;6.55;1.35;;;4.00;99.90;;;;;;5011321;28;20026;-70
2021/12/05 07:07:34;;;;;;;4.55;2.13;;;3.20;99.90;;;;;;5011531;28;20041;-68
2021/12/05 07:10:00;;;;;;;4.28;1.65;;;3.00;99.90;;;;;;5009501;28;20408;-69
2021/12/05 07:25:30;;;;;;;3.08;1.70;;;2.60;99.90;;;;;;5030336;28;20052;-69
2021/12/05 07:44:21;;;;;;;4.43;1.70;;;2.70;99.90;;;;;;4990653;28;20033;-70
2021/12/05 07:46:48;;;;;;;3.92;1.80;;;2.40;99.90;;;;;;4992733;28;20054;-70
2021/12/05 07:49:16;;;;;;;5.05;2.10;;;2.80;99.90;;;;;;5002326;28;20030;-69
2021/12/05 07:51:46;;;;;;;4.57;2.15;;;2.40;99.90;;;;;;5013260;28;20026;-69
2021/12/05 07:56:53;;;;;;;5.22;2.38;;;2.50;99.90;;;;;;5018432;28;20025;-69
2021/12/05 07:59:35;;;;;;;6.60;2.63;;;4.30;99.90;;;;;;5012444;28;20030;-69
2021/12/05 08:15:47;;;;;;;5.25;1.67;;;6.30;99.90;;;;;;5008029;28;20514;-68
2021/12/05 08:18:13;;;;;;;2.65;1.73;;;6.50;99.90;;;;;;5012566;28;20018;-69
2021/12/05 08:20:41;;;;;;;3.67;2.42;;;6.70;99.90;;;;;;5011317;28;20443;-70
2021/12/05 08:23:08;;;;;;;4.82;2.40;;;5.70;99.90;;;;;;5018097;28;20022;-70
2021/12/05 08:25:37;;;;;;;3.25;1.80;;;5.20;99.90;;;;;;5030730;28;20029;-69
2021/12/05 08:28:32;;;;;;;5.97;1.83;;;4.60;99.90;;;;;;5015253;28;20030;-70
2021/12/05 08:31:15;;;;;;;6.30;2.10;;;4.50;99.90;;;;;;5011447;28;20768;-70
2021/12/05 08:33:54;;;;;;;3.45;1.70;;;4.40;99.90;;;;;;5009445;28;20076;-69
2021/12/05 10:02:48;;;;;;;1.95;1.10;;;12.80;99.90;;;;;;4994700;28;20088;-70
2021/12/05 10:11:38;;;;;;;4.70;1.00;;;10.10;99.90;;;;;;5012422;28;20037;-69
2021/12/05 10:13:55;;;;;;;3.58;1.10;;;9.60;99.90;;;;;;5008805;28;20484;-68
2021/12/05 10:38:24;;;;;;;1.50;1.13;;;13.40;99.90;;;;;;5015897;28;20030;-71
2021/12/05 10:41:21;;;;;;;1.95;1.10;;;14.30;99.90;;;;;;5013642;28;20029;-69
2021/12/05 10:43:51;;;;;;;1.60;1.30;;;15.90;97.30;;;;;;5011758;28;20034;-70
2021/12/05 10:46:19;;;;;;;2.25;1.25;;;16.50;95.80;;;;;;5011741;28;20033;-70
2021/12/05 10:49:00;;;;;;;1.27;1.00;;;16.50;94.70;;;;;;5011988;28;20038;-72
2021/12/05 10:51:28;;;;;;;1.70;1.00;;;16.60;95.20;;;;;;5010986;28;20030;-71
2021/12/05 10:53:56;;;;;;;1.98;0.90;;;16.20;94.40;;;;;;5011617;28;20388;-71
2021/12/05 10:56:26;;;;;;;2.00;1.00;;;16.80;93.00;;;;;;5006910;28;20034;-71
2021/12/05 10:58:57;;;;;;;1.45;1.00;;;15.80;93.70;;;;;;5011845;28;20076;-69
2021/12/05 11:01:49;;;;;;;2.15;1.00;;;13.50;96.30;;;;;;5011647;28;20022;-69
2021/12/05 11:04:21;;;;;;;1.37;0.87;;;12.10;99.40;;;;;;5011781;28;20042;-71
2021/12/05 11:06:52;;;;;;;3.05;1.20;;;11.50;99.90;;;;;;5012062;28;20340;-69
2021/12/05 11:09:31;;;;;;;1.83;1.00;;;10.10;99.90;;;;;;5009662;28;20026;-68
2021/12/05 11:12:16;;;;;;;2.42;1.30;;;10.00;99.90;;;;;;5012952;28;20469;-69
2021/12/05 11:14:44;;;;;;;2.22;1.00;;;10.00;99.90;;;;;;5012634;28;20395;-69
2021/12/05 11:17:09;;;;;;;3.40;1.42;;;10.20;99.90;;;;;;5010643;28;20029;-70
2021/12/05 11:19:46;;;;;;;2.30;1.20;;;10.50;99.90;;;;;;5010953;28;20105;-70
2021/12/05 11:22:40;;;;;;;2.22;1.50;;;10.10;99.90;;;;;;5010315;28;20030;-69
2021/12/05 11:25:12;;;;;;;2.75;1.50;;;9.80;99.90;;;;;;4989171;28;20555;-70
2021/12/05 11:27:37;;;;;;;1.75;1.35;;;9.30;99.90;;;;;;4990898;28;20027;-69
2021/12/05 11:30:09;;;;;;;1.95;1.30;;;8.80;99.90;;;;;;5001054;28;20159;-68
2021/12/05 11:32:40;;;;;;;4.43;1.77;;;8.70;99.90;;;;;;5011136;28;20022;-69
2021/12/05 11:35:19;;;;;;;120.25;46.15;;;8.30;99.90;;;;;;5100500;23;20060;-73
2021/12/05 11:38:08;;;;;;;6.32;1.58;;;7.70;99.90;;;;;;5027032;28;20049;-72
2021/12/05 11:40:55;;;;;;;2.78;1.30;;;7.40;99.90;;;;;;5031106;28;20032;-72
2021/12/05 11:43:27;;;;;;;1.50;1.00;;;7.90;99.90;;;;;;5015823;28;20026;-75
2021/12/05 11:45:55;;;;;;;5.30;1.42;;;8.00;99.90;;;;;;5010468;28;20030;-73
2021/12/05 11:48:27;;;;;;;1.83;0.90;;;8.00;99.90;;;;;;5009721;28;20167;-74
2021/12/05 11:50:53;;;;;;;1.23;0.93;;;7.50;99.90;;;;;;5009433;28;20022;-73
2021/12/05 11:53:39;;;;;;;6.78;1.23;;;7.90;99.90;;;;;;4995639;28;20065;-74
2021/12/05 11:56:06;;;;;;;2.13;0.95;;;7.90;99.90;;;;;;4986734;28;20034;-73
2021/12/05 11:58:32;;;;;;;2.97;1.17;;;7.90;99.90;;;;;;4992725;28;20037;-74
2021/12/05 12:01:06;;;;;;;3.60;1.10;;;7.50;99.90;;;;;;4991543;28;20034;-74
2021/12/05 12:03:34;;;;;;;1.77;0.98;;;6.90;99.90;;;;;;5003539;28;20026;-73
2021/12/05 12:06:00;;;;;;;2.53;1.20;;;8.40;99.90;;;;;;4996053;28;20039;-73
2021/12/05 12:08:26;;;;;;;5.35;1.10;;;8.30;99.90;;;;;;4988432;28;20052;-72
2021/12/05 12:10:57;;;;;;;5.20;1.30;;;7.80;99.90;;;;;;4985098;28;20031;-72
2021/12/05 12:13:29;;;;;;;1.67;1.20;;;8.20;99.90;;;;;;5001687;28;20021;-72
2021/12/05 12:16:02;;;;;;;4.07;1.10;;;7.90;99.90;;;;;;4986315;28;20069;-73
2021/12/05 12:18:33;;;;;;;3.72;1.00;;;9.40;99.90;;;;;;5013159;28;20111;-71
2021/12/05 12:21:11;;;;;;;3.60;1.38;;;10.00;99.90;;;;;;5014859;28;20073;-74
2021/12/05 12:23:37;;;;;;;2.40;1.00;;;11.20;99.90;;;;;;5006322;28;20033;-73
2021/12/05 12:26:06;;;;;;;1.65;0.93;;;11.70;99.90;;;;;;5013820;28;20034;-73
2021/12/05 12:28:32;;;;;;;2.92;1.05;;;11.70;99.90;;;;;;5012612;28;20022;-71
2021/12/05 12:31:12;;;;;;;2.17;0.90;;;10.50;99.90;;;;;;5014086;28;20108;-72
2021/12/05 12:33:49;;;;;;;3.13;1.40;;;9.80;99.90;;;;;;5014217;28;20538;-72
2021/12/05 12:36:15;;;;;;;3.05;1.10;;;9.10;99.90;;;;;;5010059;28;20029;-71
2021/12/05 12:38:44;;;;;;;3.42;0.85;;;8.50;99.90;;;;;;5014496;28;20041;-72
2021/12/05 12:41:17;;;;;;;2.88;1.35;;;8.00;99.90;;;;;;5014586;28;20022;-71
2021/12/05 12:44:06;;;;;;;2.90;1.05;;;7.70;99.90;;;;;;5012674;28;20113;-71
2021/12/05 12:46:41;;;;;;;2.97;1.05;;;7.90;99.90;;;;;;5012209;28;20511;-72
2021/12/05 12:49:16;;;;;;;3.83;1.33;;;7.60;99.90;;;;;;5005725;28;20029;-72
2021/12/05 12:51:46;;;;;;;3.10;1.23;;;;;;;;;;5015156;28;20033;-71
2021/12/05 12:54:24;;;;;;;4.55;1.30;;;7.70;99.90;;;;;;5013907;28;20559;-71
2021/12/05 12:57:12;;;;;;;1.90;1.30;;;7.30;99.90;;;;;;4997311;28;20026;-72
2021/12/05 12:59:55;;;;;;;2.25;1.08;;;7.20;99.90;;;;;;4995099;28;20489;-71
2021/12/05 13:11:06;;;;;;;1.85;1.30;;;7.30;99.90;;;;;;4994343;28;20065;-76
2021/12/05 13:13:36;;;;;;;2.65;1.85;;;7.20;99.90;;;;;;4994062;28;20488;-75
2021/12/05 13:16:29;;;;;;;2.55;1.80;;;7.10;99.90;;;;;;4990914;28;20429;-72
2021/12/05 13:19:14;;;;;;;5.68;1.75;;;7.50;99.90;;;;;;4994163;28;20031;-72
2021/12/05 13:21:43;;;;;;;4.75;1.58;;;7.00;99.90;;;;;;4998849;28;20058;-73
2021/12/05 13:24:46;;;;;;;2.80;1.85;;;7.20;99.90;;;;;;4993823;28;20535;-73
2021/12/05 13:27:27;;;;;;;3.00;1.77;;;7.00;99.90;;;;;;4994260;28;20058;-73
2021/12/05 13:29:55;;;;;;;2.30;1.27;;;7.20;99.90;;;;;;4993329;28;20495;-72
2021/12/05 13:32:29;;;;;;;2.00;1.30;;;7.00;99.90;;;;;;5000858;28;20104;-71
2021/12/05 13:35:10;;;;;;;3.90;1.50;;;7.40;99.90;;;;;;5005122;28;20026;-72
2021/12/05 13:37:42;;;;;;;5.05;1.80;;;6.80;99.90;;;;;;4994324;28;20030;-72
2021/12/05 13:40:16;;;;;;;3.28;1.60;;;7.30;99.90;;;;;;4994012;28;20022;-73
2021/12/05 13:43:00;;;;;;;5.80;2.42;;;6.70;99.90;;;;;;4990084;28;20495;-73
2021/12/05 13:45:25;;;;;;;3.60;2.10;;;6.70;99.90;;;;;;4993643;28;20034;-76
2021/12/05 13:47:51;;;;;;;4.45;2.17;;;6.50;99.90;;;;;;4994315;28;20436;-72
2021/12/05 13:50:21;;;;;;;4.22;2.00;;;6.50;99.90;;;;;;4993035;28;20038;-73
2021/12/05 13:52:49;;;;;;;3.25;1.70;;;6.30;99.90;;;;;;4994150;28;20032;-73
2021/12/05 13:56:02;;;;;;;2.50;1.02;;;6.40;99.90;;;;;;4993613;28;20097;-74
2021/12/05 13:58:40;;;;;;;3.90;1.08;;;6.60;99.90;;;;;;4995147;28;20548;-74
2021/12/05 14:01:24;;;;;;;4.75;1.40;;;6.60;99.90;;;;;;4995728;28;20484;-73
2021/12/05 14:03:50;;;;;;;1.08;0.90;;;6.60;99.90;;;;;;4997917;28;20029;-73
2021/12/05 14:06:39;;;;;;;1.42;1.30;;;6.40;99.90;;;;;;5012625;28;20677;-68
2021/12/05 14:09:18;;;;;;;6.13;3.10;;;6.40;99.90;;;;;;5009717;28;20035;-73
2021/12/05 14:11:49;;;;;;;6.53;2.30;;;6.90;99.90;;;;;;4993284;28;20033;-74
2021/12/05 14:14:18;;;;;;;3.72;2.03;;;6.20;99.90;;;;;;5008743;28;20092;-75
2021/12/05 14:16:46;;;;;;;1.73;1.40;;;6.10;99.90;;;;;;5008069;28;20019;-73
2021/12/05 14:19:16;;;;;;;1.85;0.77;;;5.80;99.90;;;;;;5014899;28;20018;-72
2021/12/05 14:21:45;;;;;;;1.75;0.80;;;5.70;99.90;;;;;;5014444;28;20080;-73
2021/12/05 14:24:12;;;;;;;3.00;1.08;;;5.80;99.90;;;;;;4995852;28;20053;-74
2021/12/05 14:26:40;;;;;;;1.63;1.52;;;5.90;99.90;;;;;;4991739;28;20062;-72
2021/12/05 14:29:26;;;;;;;3.00;1.50;;;6.40;99.90;;;;;;4989768;28;20536;-72
2021/12/05 14:32:00;;;;;;;10.23;3.72;;;5.90;99.90;;;;;;4992467;28;20053;-72
2021/12/05 14:34:27;;;;;;;7.38;1.85;;;5.90;99.90;;;;;;5000862;28;20030;-71
2021/12/05 14:37:07;;;;;;;4.53;1.80;;;5.90;99.90;;;;;;4993092;28;20030;-71
2021/12/05 14:39:42;;;;;;;4.95;2.15;;;6.50;99.90;;;;;;4992680;28;20027;-70
2021/12/05 14:42:16;;;;;;;1.95;1.10;;;6.10;99.90;;;;;;4990595;28;20497;-70
2021/12/05 14:44:44;;;;;;;1.60;1.27;;;6.10;99.90;;;;;;4991786;28;20106;-74
2021/12/05 14:47:13;;;;;;;4.13;1.58;;;6.10;99.90;;;;;;4992198;28;20072;-74
2021/12/05 14:49:46;;;;;;;2.15;1.60;;;6.30;99.90;;;;;;4991076;28;20034;-73
2021/12/05 14:52:24;;;;;;;6.90;1.80;;;6.30;99.90;;;;;;4992303;28;20045;-73
2021/12/05 14:54:50;;;;;;;5.43;2.38;;;6.10;99.90;;;;;;4992171;28;20030;-74
2021/12/05 14:57:28;;;;;;;1.38;1.27;;;5.90;99.90;;;;;;4988421;28;20485;-73
2021/12/05 15:00:27;;;;;;;2.20;1.30;;;5.80;99.90;;;;;;4992139;28;20037;-73
2021/12/05 15:03:30;;;;;;;4.05;1.95;;;5.90;99.90;;;;;;4988648;28;20035;-73
2021/12/05 15:05:59;;;;;;;13.15;7.13;;;5.70;99.90;;;;;;4971243;28;20038;-73
2021/12/05 15:08:29;;;;;;;15.30;8.70;;;5.50;99.90;;;;;;4972521;28;20058;-72
2021/12/05 15:10:58;;;;;;;15.20;8.55;;;5.90;99.90;;;;;;4985086;28;20045;-73
2021/12/05 15:13:25;;;;;;;17.13;8.73;;;4.80;99.90;;;;;;4992149;28;20701;-74
2021/12/05 15:15:51;;;;;;;16.77;8.88;;;5.10;99.90;;;;;;4990037;28;20106;-74
2021/12/05 15:18:22;;;;;;;10.77;6.50;;;5.00;99.90;;;;;;4992033;28;20031;-74
2021/12/05 15:20:47;;;;;;;17.95;10.52;;;4.60;99.90;;;;;;4987822;28;20034;-73
2021/12/05 15:23:14;;;;;;;26.52;14.10;;;4.60;99.90;;;;;;4987674;28;20038;-74
2021/12/05 15:25:42;;;;;;;14.75;8.55;;;4.40;99.90;;;;;;4991481;28;20073;-73
2021/12/05 15:28:10;;;;;;;11.70;6.15;;;4.30;99.90;;;;;;4991903;28;20026;-74
2021/12/05 15:30:38;;;;;;;5.15;2.55;;;4.60;99.90;;;;;;4990468;28;20030;-74
2021/12/05 15:33:21;;;;;;;2.90;1.90;;;4.40;99.90;;;;;;4991610;28;20381;-74
2021/12/05 15:35:48;;;;;;;6.43;3.60;;;4.30;99.90;;;;;;4971904;28;20031;-74
2021/12/05 15:38:21;;;;;;;2.50;2.30;;;4.30;99.90;;;;;;4987270;28;20484;-74
2021/12/05 15:40:51;;;;;;;4.75;1.95;;;4.00;99.90;;;;;;4992274;28;20391;-76
2021/12/05 15:43:21;;;;;;;4.15;2.22;;;3.70;99.90;;;;;;4989632;28;20930;-75
2021/12/05 15:45:50;;;;;;;6.97;3.40;;;3.90;99.90;;;;;;4990779;28;20038;-75
2021/12/05 15:48:45;;;;;;;8.25;3.10;;;4.50;99.90;;;;;;4994818;28;20027;-73
2021/12/05 15:51:11;;;;;;;7.28;3.70;;;3.80;99.90;;;;;;4990381;28;20035;-74
2021/12/05 15:53:37;;;;;;;9.43;3.97;;;3.80;99.90;;;;;;4995724;28;20385;-74
2021/12/05 15:56:08;;;;;;;6.32;4.28;;;3.90;99.90;;;;;;4994565;28;20050;-74
2021/12/05 15:58:46;;;;;;;5.78;2.97;;;3.80;99.90;;;;;;4994466;28;20505;-73
2021/12/05 16:01:15;;;;;;;3.53;2.83;;;4.00;99.90;;;;;;4995468;28;20042;-75
2021/12/05 16:03:53;;;;;;;8.15;3.50;;;3.70;99.90;;;;;;4994891;28;20072;-74
2021/12/05 16:06:21;;;;;;;9.82;4.78;;;4.40;99.90;;;;;;5014715;28;20033;-77
2021/12/05 16:08:49;;;;;;;12.10;5.80;;;4.10;99.90;;;;;;5015085;28;20036;-78
2021/12/05 16:11:21;;;;;;;12.48;6.30;;;4.40;99.90;;;;;;4998637;28;20132;-80
2021/12/05 16:13:50;;;;;;;13.10;6.22;;;4.30;99.90;;;;;;4995563;28;20445;-72
2021/12/05 16:16:26;;;;;;;9.18;4.35;;;4.70;99.90;;;;;;4991264;28;20049;-71
2021/12/05 16:18:56;;;;;;;13.48;4.28;;;3.70;99.90;;;;;;5007236;28;20022;-72
2021/12/05 16:21:26;;;;;;;8.57;4.68;;;4.20;99.90;;;;;;5012286;28;20034;-72
2021/12/05 16:23:52;;;;;;;7.90;4.25;;;4.40;99.90;;;;;;4993964;28;20046;-72
2021/12/05 16:26:27;;;;;;;10.90;4.18;;;3.80;99.90;;;;;;4993809;28;20500;-73
2021/12/05 16:28:57;;;;;;;11.10;4.25;;;3.40;99.90;;;;;;4994809;28;20034;-75
2021/12/05 16:31:31;;;;;;;16.20;6.10;;;3.90;99.90;;;;;;4991400;28;20551;-77
2021/12/05 16:33:59;;;;;;;11.05;5.70;;;3.60;99.90;;;;;;5000078;28;20025;-76
2021/12/05 16:36:33;;;;;;;11.07;4.80;;;3.70;99.90;;;;;;5009543;28;20023;-75
2021/12/05 16:39:05;;;;;;;10.18;5.25;;;3.90;99.90;;;;;;4995663;28;20105;-75
2021/12/05 16:41:32;;;;;;;12.98;6.15;;;3.70;99.90;;;;;;4995028;28;20022;-75
2021/12/05 16:44:03;;;;;;;13.45;6.38;;;3.30;99.90;;;;;;4990494;28;20113;-74
2021/12/05 16:46:38;;;;;;;16.63;6.38;;;3.40;99.90;;;;;;4993511;28;20029;-75
2021/12/05 16:49:10;;;;;;;12.07;6.05;;;3.60;99.90;;;;;;4994993;28;20073;-75
2021/12/05 16:51:58;;;;;;;12.75;6.50;;;3.90;99.90;;;;;;4990271;28;20030;-75
2021/12/05 16:54:31;;;;;;;12.52;7.18;;;3.50;99.90;;;;;;4994169;28;20370;-75
2021/12/05 16:57:13;;;;;;;15.93;5.03;;;3.90;99.90;;;;;;4990075;28;20076;-72
2021/12/05 16:59:43;;;;;;;14.95;6.45;;;3.70;99.90;;;;;;4993729;28;20093;-72
2021/12/05 17:02:25;;;;;;;14.65;9.65;;;3.50;99.90;;;;;;4994234;28;20034;-72
2021/12/05 17:05:05;;;;;;;14.50;6.67;;;3.30;99.90;;;;;;4991853;28;20033;-73
2021/12/05 17:07:55;;;;;;;9.77;6.40;;;3.10;99.90;;;;;;4994226;28;20019;-72
2021/12/05 17:10:20;;;;;;;10.00;7.60;;;3.30;99.90;;;;;;4994014;28;20030;-72
2021/12/05 17:12:48;;;;;;;11.40;8.35;;;3.70;99.90;;;;;;5013727;28;20115;-72
2021/12/05 17:15:21;;;;;;;11.20;7.35;;;3.80;99.90;;;;;;5013084;28;20168;-73
2021/12/05 17:17:48;;;;;;;8.77;6.82;;;3.20;99.90;;;;;;4995293;28;20142;-76
2021/12/05 17:20:20;;;;;;;7.63;5.53;;;3.50;99.90;;;;;;4993846;28;20034;-75
2021/12/05 17:23:00;;;;;;;14.35;6.68;;;3.40;99.90;;;;;;4990123;28;20037;-73
2021/12/05 17:25:30;;;;;;;28.00;12.73;;;3.80;99.90;;;;;;4993661;28;20033;-78
2021/12/05 17:27:57;;;;;;;20.10;11.02;;;3.80;99.90;;;;;;4994490;28;20045;-78
2021/12/05 17:30:23;;;;;;;18.55;9.70;;;3.50;99.90;;;;;;4993177;28;20481;-75
2021/12/05 17:32:48;;;;;;;17.33;8.88;;;3.50;99.90;;;;;;4993914;28;20033;-72
2021/12/05 17:35:14;;;;;;;13.82;9.05;;;2.90;99.90;;;;;;5006353;28;20114;-74
2021/12/05 17:37:44;;;;;;;11.38;8.32;;;3.30;99.90;;;;;;4995085;28;20145;-74
2021/12/05 17:40:11;;;;;;;13.77;9.32;;;3.60;99.90;;;;;;5006978;28;20030;-75
2021/12/05 17:42:38;;;;;;;13.50;9.30;;;2.70;99.90;;;;;;5002120;28;20042;-74
2021/12/05 17:45:07;;;;;;;16.10;10.10;;;2.90;99.90;;;;;;4995621;28;20034;-74
2021/12/05 17:47:33;;;;;;;17.13;9.70;;;3.30;99.90;;;;;;4994540;28;20121;-75
2021/12/05 17:50:03;;;;;;;18.75;9.90;;;3.70;99.90;;;;;;4990956;28;20066;-75
2021/12/05 17:52:31;;;;;;;20.55;10.13;;;3.20;99.90;;;;;;4994219;28;20480;-75
2021/12/05 17:55:04;;;;;;;19.67;10.32;;;3.10;99.90;;;;;;4993125;28;20150;-76
2021/12/05 17:57:42;;;;;;;14.93;9.02;;;3.10;99.90;;;;;;4995298;28;20523;-75
2021/12/05 18:00:35;;;;;;;19.65;9.70;;;2.80;99.90;;;;;;4994637;28;20109;-74
2021/12/05 18:03:06;;;;;;;14.95;9.25;;;3.00;99.90;;;;;;4975253;28;20023;-76
2021/12/05 18:05:45;;;;;;;22.38;10.95;;;2.80;99.90;;;;;;5022215;22;20464;-76
2021/12/05 18:08:14;;;;;;;18.65;11.95;;;2.80;99.90;;;;;;5015344;28;20145;-76
2021/12/05 18:10:48;;;;;;;18.52;12.45;;;3.10;99.90;;;;;;5018662;28;20017;-77
2021/12/05 18:13:20;;;;;;;21.45;11.93;;;2.40;99.90;;;;;;5028201;28;20041;-77
2021/12/05 18:15:54;;;;;;;15.65;9.75;;;2.30;99.90;;;;;;5011901;28;20024;-77
2021/12/05 18:18:21;;;;;;;18.10;11.05;;;2.30;99.90;;;;;;5013538;28;20034;-78
2021/12/05 18:20:48;;;;;;;16.83;10.50;;;2.20;99.90;;;;;;5012485;28;20072;-78
2021/12/05 18:23:14;;;;;;;15.55;9.77;;;2.40;99.90;;;;;;5013789;28;20522;-77
2021/12/05 18:25:41;;;;;;;19.40;11.00;;;2.00;99.90;;;;;;5008149;28;20022;-78
2021/12/05 18:28:07;;;;;;;17.17;10.63;;;2.00;99.90;;;;;;4993211;28;20030;-77
2021/12/05 18:30:35;;;;;;;21.50;10.63;;;2.50;99.90;;;;;;4993682;28;20037;-79
2021/12/05 18:33:04;;;;;;;17.90;10.57;;;2.20;99.90;;;;;;5004107;28;20026;-78
2021/12/05 18:35:32;;;;;;;14.98;9.68;;;2.20;99.90;;;;;;5008950;28;20057;-77
2021/12/05 18:38:06;;;;;;;15.18;9.45;;;2.30;99.90;;;;;;4993085;28;20030;-78
2021/12/05 18:40:33;;;;;;;21.65;10.77;;;2.40;99.90;;;;;;4991358;28;20034;-78
2021/12/05 18:43:00;;;;;;;14.60;10.35;;;2.30;99.90;;;;;;4991431;28;20030;-79
2021/12/05 18:45:30;;;;;;;22.05;14.02;;;2.10;99.90;;;;;;4991744;28;20022;-78
2021/12/05 18:47:56;;;;;;;17.42;10.77;;;2.20;99.90;;;;;;4992846;28;20077;-78
2021/12/05 18:50:22;;;;;;;18.70;12.15;;;2.10;99.90;;;;;;4992855;28;20030;-77
2021/12/05 18:52:48;;;;;;;15.98;10.10;;;2.20;99.90;;;;;;4993891;28;20037;-77
2021/12/05 18:55:17;;;;;;;15.75;9.75;;;2.30;99.90;;;;;;4994408;28;20468;-78
2021/12/05 18:57:45;;;;;;;12.45;9.18;;;2.30;99.90;;;;;;4994390;28;20022;-79